sensor_id;sensor_type;location;lat;lon;timestamp;P1;durP1;ratioP1;P2;durP2;ratioP2
33780;SDS011;20097;50.832;19.100;2023-07-13T00:04:37;10.85;;;7.55;;
33780;SDS011;20097;50.832;19.100;2023-07-13T00:09:42;8.68;;;6.65;;
33780;SDS011;20097;50.832;19.100;2023-07-13T00:14:46;11.70;;;8.70;;
33780;SDS011;20097;50.832;19.100;2023-07-13T00:19:51;12.15;;;8.77;;
33780;SDS011;20097;50.832;19.100;2023-07-13T00:24:59;9.95;;;8.20;;
33780;SDS011;20097;50.832;19.100;2023-07-13T00:30:04;13.45;;;9.35;;
33780;SDS011;20097;50.832;19.100;2023-07-13T00:35:12;11.68;;;8.82;;
33780;SDS011;20097;50.832;19.100;2023-07-13T00:40:19;12.82;;;9.27;;
33780;SDS011;20097;50.832;19.100;2023-07-13T00:51:30;19.20;;;9.43;;
33780;SDS011;20097;50.832;19.100;2023-07-13T00:56:41;13.05;;;8.73;;
33780;SDS011;20097;50.832;19.100;2023-07-13T01:01:49;11.98;;;8.77;;
33780;SDS011;20097;50.832;19.100;2023-07-13T01:06:55;10.82;;;8.65;;
33780;SDS011;20097;50.832;19.100;2023-07-13T01:12:04;10.82;;;8.68;;
33780;SDS011;20097;50.832;19.100;2023-07-13T01:17:10;10.82;;;9.07;;
33780;SDS011;20097;50.832;19.100;2023-07-13T01:22:17;11.38;;;9.02;;
33780;SDS011;20097;50.832;19.100;2023-07-13T01:27:27;12.93;;;8.77;;
33780;SDS011;20097;50.832;19.100;2023-07-13T01:32:32;9.75;;;8.75;;
33780;SDS011;20097;50.832;19.100;2023-07-13T01:37:39;11.73;;;7.85;;
33780;SDS011;20097;50.832;19.100;2023-07-13T01:42:43;11.23;;;8.05;;
33780;SDS011;20097;50.832;19.100;2023-07-13T01:47:48;9.90;;;7.35;;
33780;SDS011;20097;50.832;19.100;2023-07-13T01:52:53;11.32;;;8.10;;
33780;SDS011;20097;50.832;19.100;2023-07-13T01:57:58;8.35;;;7.45;;
33780;SDS011;20097;50.832;19.100;2023-07-13T02:03:03;8.25;;;6.75;;
33780;SDS011;20097;50.832;19.100;2023-07-13T02:13:14;7.50;;;6.65;;
33780;SDS011;20097;50.832;19.100;2023-07-13T02:18:18;13.20;;;7.57;;
33780;SDS011;20097;50.832;19.100;2023-07-13T02:23:24;7.80;;;6.25;;
33780;SDS011;20097;50.832;19.100;2023-07-13T02:28:29;9.43;;;6.80;;
33780;SDS011;20097;50.832;19.100;2023-07-13T02:38:39;7.78;;;7.03;;
33780;SDS011;20097;50.832;19.100;2023-07-13T02:43:44;10.27;;;6.50;;
33780;SDS011;20097;50.832;19.100;2023-07-13T02:48:48;7.80;;;6.88;;
33780;SDS011;20097;50.832;19.100;2023-07-13T02:53:54;9.40;;;6.25;;
33780;SDS011;20097;50.832;19.100;2023-07-13T02:58:59;7.72;;;6.28;;
33780;SDS011;20097;50.832;19.100;2023-07-13T03:04:03;11.55;;;6.50;;
33780;SDS011;20097;50.832;19.100;2023-07-13T03:09:11;8.85;;;6.57;;
33780;SDS011;20097;50.832;19.100;2023-07-13T03:14:20;10.05;;;7.47;;
33780;SDS011;20097;50.832;19.100;2023-07-13T03:19:26;9.38;;;6.40;;
33780;SDS011;20097;50.832;19.100;2023-07-13T03:24:33;11.13;;;7.22;;
33780;SDS011;20097;50.832;19.100;2023-07-13T03:29:42;16.70;;;8.07;;
33780;SDS011;20097;50.832;19.100;2023-07-13T03:34:50;9.60;;;6.93;;
33780;SDS011;20097;50.832;19.100;2023-07-13T03:39:55;19.05;;;8.05;;
33780;SDS011;20097;50.832;19.100;2023-07-13T03:45:01;8.18;;;5.28;;
33780;SDS011;20097;50.832;19.100;2023-07-13T03:50:08;12.10;;;7.20;;
33780;SDS011;20097;50.832;19.100;2023-07-13T03:55:14;7.90;;;5.28;;
33780;SDS011;20097;50.832;19.100;2023-07-13T04:00:20;8.25;;;5.95;;
33780;SDS011;20097;50.832;19.100;2023-07-13T04:05:28;7.10;;;5.18;;
33780;SDS011;20097;50.832;19.100;2023-07-13T04:10:34;8.13;;;5.65;;
33780;SDS011;20097;50.832;19.100;2023-07-13T04:15:39;7.07;;;5.50;;
33780;SDS011;20097;50.832;19.100;2023-07-13T04:20:44;7.72;;;4.97;;
33780;SDS011;20097;50.832;19.100;2023-07-13T04:25:51;7.70;;;5.05;;
33780;SDS011;20097;50.832;19.100;2023-07-13T04:30:56;7.57;;;5.75;;
33780;SDS011;20097;50.832;19.100;2023-07-13T04:36:01;7.05;;;4.75;;
33780;SDS011;20097;50.832;19.100;2023-07-13T04:41:06;5.60;;;5.00;;
33780;SDS011;20097;50.832;19.100;2023-07-13T04:46:13;5.30;;;4.75;;
33780;SDS011;20097;50.832;19.100;2023-07-13T04:51:21;6.53;;;5.70;;
33780;SDS011;20097;50.832;19.100;2023-07-13T04:56:27;6.13;;;5.18;;
33780;SDS011;20097;50.832;19.100;2023-07-13T05:01:32;11.15;;;6.03;;
33780;SDS011;20097;50.832;19.100;2023-07-13T05:11:42;10.38;;;6.07;;
33780;SDS011;20097;50.832;19.100;2023-07-13T05:16:47;9.43;;;6.82;;
33780;SDS011;20097;50.832;19.100;2023-07-13T05:21:52;7.95;;;5.90;;
33780;SDS011;20097;50.832;19.100;2023-07-13T05:26:58;7.80;;;6.28;;
33780;SDS011;20097;50.832;19.100;2023-07-13T05:32:02;13.52;;;6.82;;
33780;SDS011;20097;50.832;19.100;2023-07-13T05:37:09;8.15;;;5.30;;
33780;SDS011;20097;50.832;19.100;2023-07-13T05:42:14;7.22;;;5.68;;
33780;SDS011;20097;50.832;19.100;2023-07-13T05:47:19;8.27;;;5.65;;
33780;SDS011;20097;50.832;19.100;2023-07-13T05:57:29;5.65;;;5.13;;
33780;SDS011;20097;50.832;19.100;2023-07-13T06:02:34;7.45;;;5.45;;
33780;SDS011;20097;50.832;19.100;2023-07-13T06:07:39;6.93;;;5.75;;
33780;SDS011;20097;50.832;19.100;2023-07-13T06:12:45;7.28;;;5.35;;
33780;SDS011;20097;50.832;19.100;2023-07-13T06:17:50;7.57;;;5.72;;
33780;SDS011;20097;50.832;19.100;2023-07-13T06:22:54;7.20;;;5.60;;
33780;SDS011;20097;50.832;19.100;2023-07-13T06:28:00;7.32;;;5.60;;
33780;SDS011;20097;50.832;19.100;2023-07-13T06:33:04;9.25;;;5.53;;
33780;SDS011;20097;50.832;19.100;2023-07-13T06:38:09;15.43;;;5.30;;
33780;SDS011;20097;50.832;19.100;2023-07-13T06:48:19;5.25;;;4.63;;
33780;SDS011;20097;50.832;19.100;2023-07-13T06:53:24;10.52;;;4.97;;
33780;SDS011;20097;50.832;19.100;2023-07-13T07:03:34;8.20;;;5.45;;
33780;SDS011;20097;50.832;19.100;2023-07-13T07:08:38;8.23;;;5.85;;
33780;SDS011;20097;50.832;19.100;2023-07-13T07:13:44;6.03;;;5.47;;
33780;SDS011;20097;50.832;19.100;2023-07-13T07:18:49;9.43;;;6.93;;
33780;SDS011;20097;50.832;19.100;2023-07-13T07:23:53;12.00;;;5.88;;
33780;SDS011;20097;50.832;19.100;2023-07-13T07:34:05;7.82;;;5.43;;
33780;SDS011;20097;50.832;19.100;2023-07-13T07:39:10;5.78;;;5.20;;
33780;SDS011;20097;50.832;19.100;2023-07-13T07:44:16;17.42;;;6.47;;
33780;SDS011;20097;50.832;19.100;2023-07-13T07:49:20;8.77;;;6.20;;
33780;SDS011;20097;50.832;19.100;2023-07-13T07:54:25;10.27;;;6.68;;
33780;SDS011;20097;50.832;19.100;2023-07-13T07:59:51;9.00;;;6.25;;
33780;SDS011;20097;50.832;19.100;2023-07-13T08:04:58;6.47;;;4.47;;
33780;SDS011;20097;50.832;19.100;2023-07-13T08:10:06;7.18;;;4.03;;
33780;SDS011;20097;50.832;19.100;2023-07-13T08:15:14;6.10;;;3.97;;
33780;SDS011;20097;50.832;19.100;2023-07-13T08:20:22;5.10;;;3.30;;
33780;SDS011;20097;50.832;19.100;2023-07-13T08:25:27;6.85;;;3.63;;
33780;SDS011;20097;50.832;19.100;2023-07-13T08:35:38;4.53;;;3.00;;
33780;SDS011;20097;50.832;19.100;2023-07-13T08:40:43;6.03;;;2.90;;
33780;SDS011;20097;50.832;19.100;2023-07-13T08:45:55;5.35;;;2.90;;
33780;SDS011;20097;50.832;19.100;2023-07-13T08:51:18;2.92;;;2.50;;
33780;SDS011;20097;50.832;19.100;2023-07-13T08:56:34;2.78;;;1.83;;
33780;SDS011;20097;50.832;19.100;2023-07-13T09:01:46;3.90;;;2.00;;
33780;SDS011;20097;50.832;19.100;2023-07-13T09:07:17;3.42;;;2.10;;
33780;SDS011;20097;50.832;19.100;2023-07-13T09:12:33;2.90;;;2.00;;
33780;SDS011;20097;50.832;19.100;2023-07-13T09:17:51;3.60;;;1.80;;
33780;SDS011;20097;50.832;19.100;2023-07-13T09:22:58;2.30;;;2.00;;
33780;SDS011;20097;50.832;19.100;2023-07-13T09:28:09;3.55;;;2.08;;
33780;SDS011;20097;50.832;19.100;2023-07-13T09:33:19;5.03;;;2.05;;
33780;SDS011;20097;50.832;19.100;2023-07-13T09:38:25;2.55;;;2.20;;
33780;SDS011;20097;50.832;19.100;2023-07-13T09:43:34;4.85;;;1.90;;
33780;SDS011;20097;50.832;19.100;2023-07-13T09:48:41;2.60;;;2.40;;
33780;SDS011;20097;50.832;19.100;2023-07-13T09:53:46;5.72;;;2.50;;
33780;SDS011;20097;50.832;19.100;2023-07-13T09:58:51;3.17;;;1.70;;
33780;SDS011;20097;50.832;19.100;2023-07-13T10:03:57;4.50;;;2.53;;
33780;SDS011;20097;50.832;19.100;2023-07-13T10:09:01;3.75;;;2.20;;
33780;SDS011;20097;50.832;19.100;2023-07-13T10:14:09;7.20;;;2.17;;
33780;SDS011;20097;50.832;19.100;2023-07-13T10:19:19;2.35;;;2.15;;
33780;SDS011;20097;50.832;19.100;2023-07-13T10:24:30;2.85;;;2.03;;
33780;SDS011;20097;50.832;19.100;2023-07-13T10:29:42;3.05;;;2.15;;
33780;SDS011;20097;50.832;19.100;2023-07-13T10:34:53;3.33;;;1.85;;
33780;SDS011;20097;50.832;19.100;2023-07-13T10:40:00;3.95;;;2.45;;
33780;SDS011;20097;50.832;19.100;2023-07-13T10:45:11;4.75;;;2.17;;
33780;SDS011;20097;50.832;19.100;2023-07-13T10:50:22;3.90;;;2.38;;
33780;SDS011;20097;50.832;19.100;2023-07-13T10:55:35;4.28;;;2.08;;
33780;SDS011;20097;50.832;19.100;2023-07-13T11:00:46;3.75;;;2.00;;
33780;SDS011;20097;50.832;19.100;2023-07-13T11:06:04;4.43;;;2.67;;
33780;SDS011;20097;50.832;19.100;2023-07-13T11:16:42;2.92;;;1.85;;
33780;SDS011;20097;50.832;19.100;2023-07-13T11:22:03;3.15;;;2.25;;
33780;SDS011;20097;50.832;19.100;2023-07-13T11:27:21;8.13;;;2.33;;
33780;SDS011;20097;50.832;19.100;2023-07-13T11:32:41;4.43;;;2.10;;
33780;SDS011;20097;50.832;19.100;2023-07-13T11:37:46;4.15;;;2.40;;
33780;SDS011;20097;50.832;19.100;2023-07-13T11:42:51;3.08;;;1.80;;
33780;SDS011;20097;50.832;19.100;2023-07-13T11:47:55;4.75;;;2.13;;
33780;SDS011;20097;50.832;19.100;2023-07-13T11:53:04;10.35;;;3.60;;
33780;SDS011;20097;50.832;19.100;2023-07-13T11:58:14;10.02;;;5.40;;
33780;SDS011;20097;50.832;19.100;2023-07-13T12:03:27;7.38;;;4.80;;
33780;SDS011;20097;50.832;19.100;2023-07-13T12:08:38;5.35;;;4.18;;
33780;SDS011;20097;50.832;19.100;2023-07-13T12:13:43;6.15;;;2.85;;
33780;SDS011;20097;50.832;19.100;2023-07-13T12:18:51;6.07;;;2.67;;
33780;SDS011;20097;50.832;19.100;2023-07-13T12:23:58;2.97;;;2.20;;
33780;SDS011;20097;50.832;19.100;2023-07-13T12:29:05;3.85;;;2.53;;
33780;SDS011;20097;50.832;19.100;2023-07-13T12:34:12;6.68;;;2.78;;
33780;SDS011;20097;50.832;19.100;2023-07-13T12:39:20;3.78;;;2.75;;
33780;SDS011;20097;50.832;19.100;2023-07-13T12:44:29;4.43;;;2.65;;
33780;SDS011;20097;50.832;19.100;2023-07-13T12:49:39;4.30;;;2.70;;
33780;SDS011;20097;50.832;19.100;2023-07-13T12:54:55;4.35;;;2.58;;
33780;SDS011;20097;50.832;19.100;2023-07-13T13:05:35;8.35;;;2.63;;
33780;SDS011;20097;50.832;19.100;2023-07-13T13:10:41;4.47;;;2.50;;
33780;SDS011;20097;50.832;19.100;2023-07-13T13:15:48;4.28;;;2.70;;
33780;SDS011;20097;50.832;19.100;2023-07-13T13:20:52;4.40;;;2.75;;
33780;SDS011;20097;50.832;19.100;2023-07-13T13:25:58;2.90;;;2.60;;
33780;SDS011;20097;50.832;19.100;2023-07-13T13:31:03;4.00;;;3.40;;
33780;SDS011;20097;50.832;19.100;2023-07-13T13:36:07;5.80;;;3.15;;
33780;SDS011;20097;50.832;19.100;2023-07-13T13:41:21;6.70;;;3.00;;
33780;SDS011;20097;50.832;19.100;2023-07-13T13:46:26;6.93;;;2.75;;
33780;SDS011;20097;50.832;19.100;2023-07-13T13:51:32;4.22;;;2.42;;
33780;SDS011;20097;50.832;19.100;2023-07-13T13:56:38;5.50;;;2.92;;
33780;SDS011;20097;50.832;19.100;2023-07-13T14:01:45;3.10;;;2.75;;
33780;SDS011;20097;50.832;19.100;2023-07-13T14:06:52;4.18;;;2.15;;
33780;SDS011;20097;50.832;19.100;2023-07-13T14:17:02;4.22;;;2.40;;
33780;SDS011;20097;50.832;19.100;2023-07-13T14:22:07;2.53;;;1.98;;
33780;SDS011;20097;50.832;19.100;2023-07-13T14:27:12;3.28;;;1.88;;
33780;SDS011;20097;50.832;19.100;2023-07-13T14:32:17;3.80;;;2.20;;
33780;SDS011;20097;50.832;19.100;2023-07-13T14:37:21;4.75;;;2.20;;
33780;SDS011;20097;50.832;19.100;2023-07-13T14:47:31;2.47;;;2.05;;
33780;SDS011;20097;50.832;19.100;2023-07-13T14:52:35;3.47;;;2.00;;
33780;SDS011;20097;50.832;19.100;2023-07-13T14:57:41;3.42;;;1.80;;
33780;SDS011;20097;50.832;19.100;2023-07-13T15:02:47;2.83;;;2.10;;
33780;SDS011;20097;50.832;19.100;2023-07-13T15:07:56;3.15;;;2.00;;
33780;SDS011;20097;50.832;19.100;2023-07-13T15:13:14;2.70;;;2.30;;
33780;SDS011;20097;50.832;19.100;2023-07-13T15:18:21;2.30;;;2.00;;
33780;SDS011;20097;50.832;19.100;2023-07-13T15:23:30;4.63;;;2.28;;
33780;SDS011;20097;50.832;19.100;2023-07-13T15:28:35;2.53;;;1.70;;
33780;SDS011;20097;50.832;19.100;2023-07-13T15:33:39;2.28;;;1.55;;
33780;SDS011;20097;50.832;19.100;2023-07-13T15:38:44;3.03;;;2.25;;
33780;SDS011;20097;50.832;19.100;2023-07-13T15:43:52;3.15;;;1.73;;
33780;SDS011;20097;50.832;19.100;2023-07-13T15:49:00;2.38;;;2.17;;
33780;SDS011;20097;50.832;19.100;2023-07-13T15:54:05;1.92;;;1.60;;
33780;SDS011;20097;50.832;19.100;2023-07-13T15:59:17;2.30;;;2.10;;
33780;SDS011;20097;50.832;19.100;2023-07-13T16:04:21;1.75;;;1.65;;
33780;SDS011;20097;50.832;19.100;2023-07-13T16:09:25;2.40;;;1.75;;
33780;SDS011;20097;50.832;19.100;2023-07-13T16:14:31;9.63;;;2.50;;
33780;SDS011;20097;50.832;19.100;2023-07-13T16:19:36;2.80;;;1.70;;
33780;SDS011;20097;50.832;19.100;2023-07-13T16:24:40;2.45;;;1.83;;
33780;SDS011;20097;50.832;19.100;2023-07-13T16:29:49;3.95;;;2.33;;
33780;SDS011;20097;50.832;19.100;2023-07-13T16:34:53;2.70;;;1.95;;
33780;SDS011;20097;50.832;19.100;2023-07-13T16:39:59;3.00;;;1.83;;
33780;SDS011;20097;50.832;19.100;2023-07-13T16:45:12;3.22;;;1.98;;
33780;SDS011;20097;50.832;19.100;2023-07-13T16:50:18;3.50;;;1.90;;
33780;SDS011;20097;50.832;19.100;2023-07-13T16:55:26;4.60;;;1.77;;
33780;SDS011;20097;50.832;19.100;2023-07-13T17:00:34;3.95;;;2.03;;
33780;SDS011;20097;50.832;19.100;2023-07-13T17:05:40;2.63;;;1.83;;
33780;SDS011;20097;50.832;19.100;2023-07-13T17:10:46;6.70;;;1.85;;
33780;SDS011;20097;50.832;19.100;2023-07-13T17:15:54;3.20;;;2.05;;
33780;SDS011;20097;50.832;19.100;2023-07-13T17:21:01;3.45;;;2.10;;
33780;SDS011;20097;50.832;19.100;2023-07-13T17:26:06;3.13;;;2.05;;
33780;SDS011;20097;50.832;19.100;2023-07-13T17:31:17;4.80;;;1.88;;
33780;SDS011;20097;50.832;19.100;2023-07-13T17:36:24;2.90;;;2.30;;
33780;SDS011;20097;50.832;19.100;2023-07-13T17:41:28;2.42;;;2.05;;
33780;SDS011;20097;50.832;19.100;2023-07-13T17:46:34;6.50;;;2.63;;
33780;SDS011;20097;50.832;19.100;2023-07-13T17:51:38;2.55;;;2.10;;
33780;SDS011;20097;50.832;19.100;2023-07-13T17:56:44;1.90;;;1.65;;
33780;SDS011;20097;50.832;19.100;2023-07-13T18:06:54;2.90;;;2.00;;
33780;SDS011;20097;50.832;19.100;2023-07-13T18:12:09;3.65;;;2.45;;
33780;SDS011;20097;50.832;19.100;2023-07-13T18:17:21;3.97;;;1.92;;
33780;SDS011;20097;50.832;19.100;2023-07-13T18:22:25;3.65;;;1.85;;
33780;SDS011;20097;50.832;19.100;2023-07-13T18:27:31;8.38;;;2.53;;
33780;SDS011;20097;50.832;19.100;2023-07-13T18:32:38;7.53;;;2.35;;
33780;SDS011;20097;50.832;19.100;2023-07-13T18:37:44;2.97;;;2.47;;
33780;SDS011;20097;50.832;19.100;2023-07-13T18:42:48;4.30;;;2.47;;
33780;SDS011;20097;50.832;19.100;2023-07-13T18:47:55;4.10;;;2.78;;
33780;SDS011;20097;50.832;19.100;2023-07-13T18:53:01;4.95;;;2.47;;
33780;SDS011;20097;50.832;19.100;2023-07-13T19:03:13;6.60;;;3.40;;
33780;SDS011;20097;50.832;19.100;2023-07-13T19:08:21;6.40;;;4.30;;
33780;SDS011;20097;50.832;19.100;2023-07-13T19:13:27;7.32;;;3.83;;
33780;SDS011;20097;50.832;19.100;2023-07-13T19:18:37;3.63;;;3.20;;
33780;SDS011;20097;50.832;19.100;2023-07-13T19:23:43;5.65;;;3.28;;
33780;SDS011;20097;50.832;19.100;2023-07-13T19:28:50;5.22;;;3.40;;
33780;SDS011;20097;50.832;19.100;2023-07-13T19:33:58;7.72;;;4.00;;
33780;SDS011;20097;50.832;19.100;2023-07-13T19:39:08;4.78;;;4.00;;
33780;SDS011;20097;50.832;19.100;2023-07-13T19:44:26;8.63;;;3.65;;
33780;SDS011;20097;50.832;19.100;2023-07-13T19:49:32;6.25;;;4.60;;
33780;SDS011;20097;50.832;19.100;2023-07-13T19:54:37;6.40;;;5.53;;
33780;SDS011;20097;50.832;19.100;2023-07-13T19:59:44;4.90;;;4.00;;
33780;SDS011;20097;50.832;19.100;2023-07-13T20:04:53;4.57;;;3.90;;
33780;SDS011;20097;50.832;19.100;2023-07-13T20:10:15;7.32;;;4.70;;
33780;SDS011;20097;50.832;19.100;2023-07-13T20:15:31;9.27;;;4.45;;
33780;SDS011;20097;50.832;19.100;2023-07-13T20:20:37;8.45;;;4.72;;
33780;SDS011;20097;50.832;19.100;2023-07-13T20:25:47;6.47;;;4.55;;
33780;SDS011;20097;50.832;19.100;2023-07-13T20:30:52;9.77;;;5.40;;
33780;SDS011;20097;50.832;19.100;2023-07-13T20:36:00;11.00;;;4.78;;
33780;SDS011;20097;50.832;19.100;2023-07-13T20:41:09;8.80;;;4.93;;
33780;SDS011;20097;50.832;19.100;2023-07-13T20:46:15;10.13;;;5.00;;
33780;SDS011;20097;50.832;19.100;2023-07-13T20:51:23;6.32;;;4.72;;
33780;SDS011;20097;50.832;19.100;2023-07-13T20:56:28;8.50;;;4.53;;
33780;SDS011;20097;50.832;19.100;2023-07-13T21:01:33;9.48;;;5.05;;
33780;SDS011;20097;50.832;19.100;2023-07-13T21:06:42;5.82;;;4.82;;
33780;SDS011;20097;50.832;19.100;2023-07-13T21:11:46;5.30;;;4.57;;
33780;SDS011;20097;50.832;19.100;2023-07-13T21:16:51;6.45;;;5.22;;
33780;SDS011;20097;50.832;19.100;2023-07-13T21:21:57;7.85;;;5.13;;
33780;SDS011;20097;50.832;19.100;2023-07-13T21:27:01;11.10;;;5.18;;
33780;SDS011;20097;50.832;19.100;2023-07-13T21:32:08;5.80;;;4.93;;
33780;SDS011;20097;50.832;19.100;2023-07-13T21:37:19;10.45;;;5.28;;
33780;SDS011;20097;50.832;19.100;2023-07-13T21:42:24;8.05;;;5.45;;
33780;SDS011;20097;50.832;19.100;2023-07-13T21:47:29;9.10;;;5.05;;
33780;SDS011;20097;50.832;19.100;2023-07-13T21:52:34;11.90;;;6.20;;
33780;SDS011;20097;50.832;19.100;2023-07-13T21:57:39;8.52;;;6.00;;
33780;SDS011;20097;50.832;19.100;2023-07-13T22:02:44;8.93;;;5.40;;
33780;SDS011;20097;50.832;19.100;2023-07-13T22:07:50;8.13;;;5.57;;
33780;SDS011;20097;50.832;19.100;2023-07-13T22:12:55;10.73;;;5.60;;
33780;SDS011;20097;50.832;19.100;2023-07-13T22:18:01;7.55;;;4.70;;
33780;SDS011;20097;50.832;19.100;2023-07-13T22:23:17;8.40;;;5.07;;
33780;SDS011;20097;50.832;19.100;2023-07-13T22:28:23;8.38;;;5.20;;
33780;SDS011;20097;50.832;19.100;2023-07-13T22:33:30;7.97;;;4.22;;
33780;SDS011;20097;50.832;19.100;2023-07-13T22:38:36;7.88;;;5.50;;
33780;SDS011;20097;50.832;19.100;2023-07-13T22:43:42;6.80;;;4.50;;
33780;SDS011;20097;50.832;19.100;2023-07-13T22:48:50;4.50;;;4.07;;
33780;SDS011;20097;50.832;19.100;2023-07-13T22:54:00;6.20;;;4.28;;
33780;SDS011;20097;50.832;19.100;2023-07-13T22:59:04;7.43;;;4.10;;
33780;SDS011;20097;50.832;19.100;2023-07-13T23:04:14;5.82;;;4.45;;
33780;SDS011;20097;50.832;19.100;2023-07-13T23:09:29;5.47;;;4.22;;
33780;SDS011;20097;50.832;19.100;2023-07-13T23:14:35;6.82;;;4.55;;
33780;SDS011;20097;50.832;19.100;2023-07-13T23:19:39;6.25;;;4.35;;
33780;SDS011;20097;50.832;19.100;2023-07-13T23:24:45;7.50;;;3.75;;
33780;SDS011;20097;50.832;19.100;2023-07-13T23:29:49;8.15;;;4.35;;
33780;SDS011;20097;50.832;19.100;2023-07-13T23:34:54;6.80;;;4.30;;
33780;SDS011;20097;50.832;19.100;2023-07-13T23:40:00;8.48;;;4.85;;
33780;SDS011;20097;50.832;19.100;2023-07-13T23:45:05;5.43;;;4.13;;
33780;SDS011;20097;50.832;19.100;2023-07-13T23:50:15;7.30;;;5.03;;
33780;SDS011;20097;50.832;19.100;2023-07-13T23:55:25;7.32;;;5.10;;
